Time;durP1;ratioP1;P1;durP2;ratioP2;P2;SDS_P1;SDS_P2;PMS_P1;PMS_P2;Temp;Humidity;BMP_temperature;BMP_pressure;BME280_temperature;BME280_humidity;BME280_pressure;Samples;Min_cycle;Max_cycle;Signal;HPM_P1;HPM_P2
2024/01/18 00:01:56;;;;;;;12.55;2.80;;;-0.50;99.90;;;;;;5006415;28;20076;-62
2024/01/18 00:04:23;;;;;;;8.50;3.17;;;-0.60;99.90;;;;;;5017150;28;20041;-62
2024/01/18 00:06:51;;;;;;;9.25;2.47;;;-0.60;99.90;;;;;;5006914;28;20041;-63
2024/01/18 00:09:18;;;;;;;6.00;2.70;;;-0.20;99.90;;;;;;5007217;28;20064;-62
2024/01/18 00:11:46;;;;;;;6.88;3.08;;;-0.60;99.90;;;;;;5000896;28;20195;-62
2024/01/18 00:14:13;;;;;;;5.03;2.40;;;-0.60;99.90;;;;;;5011713;28;20049;-62
2024/01/18 00:16:40;;;;;;;3.42;2.00;;;-0.60;99.90;;;;;;5005223;28;20042;-63
2024/01/18 00:19:09;;;;;;;7.47;2.28;;;-0.60;99.90;;;;;;4996900;28;20095;-63
2024/01/18 00:21:35;;;;;;;5.22;2.47;;;-0.60;99.90;;;;;;5008772;28;20049;-63
2024/01/18 00:24:03;;;;;;;6.03;2.10;;;-0.60;99.90;;;;;;5007223;28;20563;-63
2024/01/18 00:26:29;;;;;;;6.53;2.50;;;-0.60;99.90;;;;;;5003073;28;20064;-63
2024/01/18 00:28:56;;;;;;;8.82;2.38;;;-0.60;99.90;;;;;;5020123;28;20054;-64
2024/01/18 00:31:23;;;;;;;7.97;2.17;;;-0.70;99.90;;;;;;5004361;28;20046;-64
2024/01/18 00:33:52;;;;;;;6.72;1.73;;;-0.70;99.90;;;;;;5013545;28;20053;-63
2024/01/18 00:36:19;;;;;;;6.53;3.78;;;-0.70;99.90;;;;;;5000965;28;21387;-63
2024/01/18 00:38:46;;;;;;;4.60;1.77;;;-0.70;99.90;;;;;;5002148;28;20050;-63
2024/01/18 00:41:13;;;;;;;4.60;1.92;;;-0.70;99.90;;;;;;4999596;28;20096;-64
2024/01/18 00:43:39;;;;;;;6.00;1.55;;;-0.70;99.90;;;;;;5007742;28;20127;-63
2024/01/18 00:46:06;;;;;;;6.35;2.20;;;-0.70;99.90;;;;;;5008535;28;20111;-63
2024/01/18 00:48:33;;;;;;;5.70;1.60;;;-0.80;99.90;;;;;;5001231;28;20703;-63
2024/01/18 00:51:00;;;;;;;4.40;1.42;;;-0.80;99.90;;;;;;5006727;28;20048;-63
2024/01/18 00:53:27;;;;;;;3.90;1.95;;;-0.90;99.90;;;;;;5010155;28;20053;-61
2024/01/18 00:55:54;;;;;;;5.35;2.85;;;-0.90;99.90;;;;;;4997914;28;20093;-62
2024/01/18 00:58:21;;;;;;;4.07;1.92;;;-0.90;99.90;;;;;;5005597;28;20069;-62
2024/01/18 01:00:48;;;;;;;3.63;2.00;;;-1.00;99.90;;;;;;5000035;28;20046;-62
2024/01/18 01:03:15;;;;;;;4.40;2.25;;;-0.90;99.90;;;;;;5001126;28;20038;-63
2024/01/18 01:05:44;;;;;;;9.95;2.75;;;-1.20;99.90;;;;;;5005871;28;20054;-63
2024/01/18 01:08:11;;;;;;;6.13;2.35;;;-1.20;99.90;;;;;;4999327;28;20099;-63
2024/01/18 01:10:38;;;;;;;4.05;2.25;;;-1.20;99.90;;;;;;5003857;28;20164;-63
2024/01/18 01:13:05;;;;;;;3.80;1.55;;;-1.20;99.90;;;;;;4997572;28;20069;-63
2024/01/18 01:15:32;;;;;;;5.30;2.45;;;-1.20;99.90;;;;;;5006239;28;20049;-63
2024/01/18 01:17:59;;;;;;;3.80;1.67;;;-1.20;99.90;;;;;;5001008;28;20077;-63
2024/01/18 01:20:26;;;;;;;8.05;2.70;;;-1.20;99.90;;;;;;5004038;28;20052;-63
2024/01/18 01:22:53;;;;;;;4.53;2.38;;;-1.20;99.90;;;;;;5001137;28;20061;-63
2024/01/18 01:25:21;;;;;;;4.38;1.58;;;-1.20;99.90;;;;;;5012495;28;20061;-63
2024/01/18 01:27:49;;;;;;;10.23;2.58;;;-1.10;99.90;;;;;;5001498;28;20073;-64
2024/01/18 01:30:16;;;;;;;3.97;2.10;;;-1.20;99.90;;;;;;5004591;28;20041;-63
2024/01/18 01:32:42;;;;;;;5.80;2.05;;;-1.20;99.90;;;;;;5005750;28;20042;-63
2024/01/18 01:35:09;;;;;;;7.80;3.13;;;-1.30;99.90;;;;;;5002492;28;20137;-63
2024/01/18 01:37:36;;;;;;;8.18;1.55;;;-1.30;99.90;;;;;;5004743;28;20571;-62
2024/01/18 01:40:05;;;;;;;4.40;1.92;;;-1.30;99.90;;;;;;5008636;28;20059;-62
2024/01/18 01:42:32;;;;;;;5.78;2.97;;;-1.30;99.90;;;;;;5006917;28;20110;-62
2024/01/18 01:44:58;;;;;;;7.80;2.13;;;-1.30;99.90;;;;;;4997965;28;20052;-62
2024/01/18 01:47:25;;;;;;;5.10;1.92;;;-1.30;99.90;;;;;;5002791;28;20346;-62
2024/01/18 01:49:52;;;;;;;13.07;2.88;;;-1.20;99.90;;;;;;5006978;28;20532;-63
2024/01/18 01:52:19;;;;;;;5.00;2.42;;;-1.20;99.90;;;;;;5011185;28;20137;-62
2024/01/18 01:54:46;;;;;;;7.85;2.63;;;-1.20;99.90;;;;;;4998502;28;20084;-63
2024/01/18 01:57:13;;;;;;;6.30;1.92;;;-1.20;99.90;;;;;;4993315;28;20046;-64
2024/01/18 01:59:40;;;;;;;5.43;2.50;;;-1.20;99.90;;;;;;4987482;28;20137;-62
2024/01/18 02:02:07;;;;;;;5.18;2.47;;;-1.30;99.90;;;;;;5006273;28;20042;-63
2024/01/18 02:04:34;;;;;;;6.88;3.28;;;-1.20;99.90;;;;;;5033395;28;20053;-63
2024/01/18 02:07:01;;;;;;;4.93;2.25;;;-1.30;99.90;;;;;;5011805;28;20056;-62
2024/01/18 02:09:28;;;;;;;10.00;2.80;;;-1.30;99.90;;;;;;4987952;28;20045;-63
2024/01/18 02:11:54;;;;;;;6.03;2.67;;;-1.30;99.90;;;;;;5012141;28;20100;-62
2024/01/18 02:14:21;;;;;;;8.13;3.97;;;-1.40;99.90;;;;;;5004635;28;20045;-63
2024/01/18 02:16:48;;;;;;;5.32;2.33;;;-1.40;99.90;;;;;;5005797;28;20053;-63
2024/01/18 02:19:15;;;;;;;6.95;2.30;;;-1.40;99.90;;;;;;5002408;28;20536;-63
2024/01/18 02:21:45;;;;;;;8.48;2.55;;;-1.40;99.90;;;;;;5008813;28;20051;-63
2024/01/18 02:24:18;;;;;;;7.90;2.92;;;-1.40;99.90;;;;;;5000949;28;20560;-62
2024/01/18 02:26:46;;;;;;;6.85;3.03;;;-1.40;99.90;;;;;;4998776;28;20083;-63
2024/01/18 02:29:13;;;;;;;5.95;2.40;;;-1.40;99.90;;;;;;5001030;28;20143;-62
2024/01/18 02:31:39;;;;;;;9.15;2.85;;;-1.40;99.90;;;;;;5002207;28;20151;-63
2024/01/18 02:34:13;;;;;;;6.85;2.85;;;-1.40;99.90;;;;;;5001145;28;20069;-63
2024/01/18 02:36:40;;;;;;;;;;;-1.50;99.90;;;;;;5021915;28;21136;-63
2024/01/18 02:39:07;;;;;;;8.07;3.50;;;-1.60;99.90;;;;;;5001495;28;19930;-62
2024/01/18 02:41:34;;;;;;;5.38;2.75;;;-1.60;99.90;;;;;;5003491;28;20053;-62
2024/01/18 02:44:01;;;;;;;6.43;2.53;;;-1.60;99.90;;;;;;5018895;28;20045;-63
2024/01/18 02:46:32;;;;;;;8.30;3.22;;;-1.60;99.90;;;;;;5002296;28;20046;-63
2024/01/18 02:48:59;;;;;;;5.80;3.08;;;-1.50;99.90;;;;;;5004570;28;20073;-63
2024/01/18 02:51:26;;;;;;;8.27;3.63;;;-1.50;99.90;;;;;;5005835;28;20072;-63
2024/01/18 02:53:53;;;;;;;6.50;2.40;;;-1.40;99.90;;;;;;5010040;28;20103;-63
2024/01/18 02:56:21;;;;;;;10.43;3.08;;;-1.70;99.90;;;;;;5008136;28;20413;-63
2024/01/18 02:58:48;;;;;;;7.07;3.17;;;-1.70;99.90;;;;;;5020392;28;20053;-64
2024/01/18 03:01:15;;;;;;;9.43;4.15;;;-1.80;99.90;;;;;;5003964;28;20053;-63
2024/01/18 03:03:41;;;;;;;4.47;2.30;;;-1.80;99.90;;;;;;5019392;28;20069;-63
2024/01/18 03:06:08;;;;;;;5.63;2.42;;;-1.80;99.90;;;;;;5006374;28;20525;-63
2024/01/18 03:08:36;;;;;;;8.75;3.15;;;-1.70;99.90;;;;;;5009236;28;20056;-63
2024/01/18 03:11:03;;;;;;;8.32;3.60;;;-1.90;99.90;;;;;;5005527;28;20437;-63
2024/01/18 03:13:31;;;;;;;6.20;2.78;;;-2.10;99.90;;;;;;5008970;28;20081;-63
2024/01/18 03:15:58;;;;;;;12.90;3.08;;;-2.10;99.90;;;;;;5004743;28;20525;-63
2024/01/18 03:18:24;;;;;;;8.25;3.40;;;-2.10;99.90;;;;;;4995221;28;20051;-63
2024/01/18 03:20:51;;;;;;;9.73;3.60;;;-2.10;99.90;;;;;;5007405;28;20074;-63
2024/01/18 03:23:18;;;;;;;5.20;2.88;;;-2.10;99.90;;;;;;5006194;28;20362;-63
2024/01/18 03:25:45;;;;;;;7.65;2.85;;;-2.20;99.90;;;;;;5003428;28;20145;-63
2024/01/18 03:28:11;;;;;;;7.15;2.55;;;-2.20;99.90;;;;;;5007655;28;20136;-63
2024/01/18 03:30:40;;;;;;;7.47;3.10;;;-2.30;99.90;;;;;;5005848;28;20108;-63
2024/01/18 03:33:07;;;;;;;10.88;2.83;;;-2.30;99.90;;;;;;5007773;28;20096;-63
2024/01/18 03:35:34;;;;;;;9.70;2.80;;;-2.30;99.90;;;;;;5004747;28;20466;-63
2024/01/18 03:38:01;;;;;;;5.50;2.85;;;-2.30;99.90;;;;;;5004253;28;20500;-64
2024/01/18 03:40:28;;;;;;;9.70;3.17;;;-2.40;99.90;;;;;;5006903;28;20058;-63
2024/01/18 03:42:55;;;;;;;8.35;3.13;;;-2.40;99.90;;;;;;5008637;28;20042;-63
2024/01/18 03:45:21;;;;;;;6.55;2.65;;;-2.40;99.90;;;;;;5006483;28;20100;-63
2024/01/18 03:47:48;;;;;;;8.35;3.15;;;-2.40;99.90;;;;;;4999118;28;20073;-63
2024/01/18 03:50:15;;;;;;;3.67;2.40;;;-2.30;99.90;;;;;;5005851;28;20065;-62
2024/01/18 03:52:42;;;;;;;5.97;2.17;;;-2.30;99.90;;;;;;5005037;28;20049;-62
2024/01/18 03:55:09;;;;;;;11.32;2.80;;;-2.30;99.90;;;;;;4998548;28;20056;-63
2024/01/18 03:57:37;;;;;;;12.30;3.13;;;-2.40;99.90;;;;;;5005210;28;20543;-63
2024/01/18 04:00:05;;;;;;;3.00;1.90;;;-2.40;99.90;;;;;;5007403;28;20054;-62
2024/01/18 04:02:32;;;;;;;5.68;2.58;;;-2.40;99.90;;;;;;5011476;28;20045;-63
2024/01/18 04:04:58;;;;;;;8.15;2.80;;;-2.40;99.90;;;;;;5010775;28;20054;-63
2024/01/18 04:07:25;;;;;;;12.18;2.55;;;-2.40;99.90;;;;;;5007432;28;20042;-62
2024/01/18 04:09:52;;;;;;;7.05;2.90;;;-2.30;99.90;;;;;;5010553;28;20092;-62
2024/01/18 04:12:19;;;;;;;11.07;2.65;;;-2.30;99.90;;;;;;5004544;28;20042;-63
2024/01/18 04:14:46;;;;;;;8.85;3.08;;;-2.30;99.90;;;;;;5021057;28;20585;-63
2024/01/18 04:17:12;;;;;;;6.78;2.42;;;-2.30;99.90;;;;;;5005786;28;20091;-63
2024/01/18 04:19:39;;;;;;;5.30;2.65;;;-2.30;99.90;;;;;;5000729;28;20053;-62
2024/01/18 04:22:06;;;;;;;9.23;2.65;;;-2.20;99.90;;;;;;5010152;28;20074;-62
2024/01/18 04:24:33;;;;;;;9.95;4.47;;;-2.30;99.90;;;;;;5002823;28;20572;-63
2024/01/18 04:27:00;;;;;;;7.35;3.00;;;-2.30;99.90;;;;;;5010601;28;20048;-62
2024/01/18 04:29:28;;;;;;;5.95;2.63;;;-2.40;99.90;;;;;;5002132;28;20042;-63
2024/01/18 04:31:58;;;;;;;5.10;2.20;;;-2.40;99.90;;;;;;5005174;28;20069;-63
2024/01/18 04:34:25;;;;;;;6.80;2.70;;;-2.40;99.90;;;;;;4999150;28;20038;-62
2024/01/18 04:36:52;;;;;;;5.13;2.17;;;-2.40;99.90;;;;;;5008786;28;20559;-62
2024/01/18 04:39:19;;;;;;;10.00;3.15;;;-2.40;99.90;;;;;;5003696;28;20082;-63
2024/01/18 04:41:45;;;;;;;9.95;2.70;;;-2.40;99.90;;;;;;5007481;28;20576;-61
2024/01/18 04:44:13;;;;;;;10.65;2.33;;;-2.40;99.90;;;;;;4998237;28;20034;-63
2024/01/18 04:46:40;;;;;;;6.85;2.50;;;-2.40;99.90;;;;;;5007446;28;20046;-62
2024/01/18 04:49:07;;;;;;;5.78;2.63;;;-2.30;99.90;;;;;;5005623;28;20061;-63
2024/01/18 04:51:34;;;;;;;3.58;2.20;;;-2.40;99.90;;;;;;5002397;28;20193;-62
2024/01/18 04:54:01;;;;;;;8.88;2.78;;;-2.40;99.90;;;;;;5004814;28;20528;-61
2024/01/18 04:56:28;;;;;;;8.20;2.08;;;-2.40;99.90;;;;;;5006600;28;20048;-62
2024/01/18 04:58:56;;;;;;;5.32;2.15;;;-2.20;99.90;;;;;;5002491;28;20065;-63
2024/01/18 05:01:23;;;;;;;14.30;3.28;;;-2.50;99.90;;;;;;5034387;28;20042;-64
2024/01/18 05:03:49;;;;;;;5.85;2.63;;;-2.50;99.90;;;;;;5001296;28;20048;-63
2024/01/18 05:06:16;;;;;;;10.10;2.25;;;-2.50;99.90;;;;;;5006379;28;20056;-63
2024/01/18 05:08:45;;;;;;;5.43;2.38;;;-2.40;99.90;;;;;;5004441;28;20046;-63
2024/01/18 05:11:12;;;;;;;7.20;2.30;;;-2.50;99.90;;;;;;5002283;28;20041;-63
2024/01/18 05:13:38;;;;;;;11.10;2.65;;;-2.60;99.90;;;;;;5004613;28;20069;-63
2024/01/18 05:16:06;;;;;;;16.15;2.92;;;-2.60;99.90;;;;;;5003538;28;20469;-63
2024/01/18 05:18:32;;;;;;;10.07;2.30;;;-2.60;99.90;;;;;;5004778;28;20100;-63
2024/01/18 05:20:59;;;;;;;10.20;2.47;;;-2.60;99.90;;;;;;5003075;28;20065;-63
2024/01/18 05:23:26;;;;;;;7.30;2.55;;;-2.70;99.90;;;;;;5007459;28;20485;-63
2024/01/18 05:25:53;;;;;;;5.18;2.40;;;-2.80;99.90;;;;;;4999493;28;20049;-63
2024/01/18 05:28:20;;;;;;;8.63;2.97;;;-2.80;99.90;;;;;;4993736;28;20102;-63
2024/01/18 05:30:47;;;;;;;6.30;3.10;;;-2.80;99.90;;;;;;5020587;28;20057;-63
2024/01/18 05:33:14;;;;;;;10.30;2.65;;;-2.80;99.90;;;;;;5013565;28;20104;-63
2024/01/18 05:35:41;;;;;;;15.52;4.28;;;-2.80;99.90;;;;;;5000540;28;20085;-64
2024/01/18 05:38:07;;;;;;;9.00;3.13;;;-2.80;99.90;;;;;;5000404;28;20050;-63
2024/01/18 05:40:34;;;;;;;9.18;4.40;;;-2.80;99.90;;;;;;5006979;28;20128;-63
2024/01/18 05:43:01;;;;;;;9.02;4.00;;;-2.90;99.90;;;;;;4997174;28;20506;-63
2024/01/18 05:45:28;;;;;;;10.52;2.72;;;-2.90;99.90;;;;;;5003074;28;20308;-63
2024/01/18 05:47:55;;;;;;;9.40;3.78;;;-2.90;99.90;;;;;;5004115;28;20045;-63
2024/01/18 05:50:23;;;;;;;5.00;2.20;;;-3.00;99.90;;;;;;5004140;28;20062;-63
2024/01/18 05:52:49;;;;;;;4.22;2.35;;;-3.00;99.90;;;;;;5003975;28;20046;-63
2024/01/18 05:55:16;;;;;;;4.70;2.13;;;-3.00;99.90;;;;;;5003153;28;20164;-63
2024/01/18 05:57:43;;;;;;;6.63;2.88;;;-3.00;99.90;;;;;;5003799;28;20045;-63
2024/01/18 06:00:10;;;;;;;13.13;3.47;;;-3.10;99.90;;;;;;4999052;28;20042;-63
2024/01/18 06:02:37;;;;;;;11.13;2.63;;;-3.10;99.90;;;;;;5005270;28;20038;-63
2024/01/18 06:05:06;;;;;;;9.68;2.67;;;-3.10;99.90;;;;;;5005889;28;20049;-63
2024/01/18 06:07:33;;;;;;;9.07;3.00;;;-3.20;99.90;;;;;;4997135;28;20041;-63
2024/01/18 06:10:00;;;;;;;8.38;2.63;;;-3.10;99.90;;;;;;4992493;28;20504;-63
2024/01/18 06:12:27;;;;;;;8.52;2.95;;;-3.20;99.90;;;;;;4999285;28;20132;-63
2024/01/18 06:14:54;;;;;;;14.23;3.08;;;-3.20;99.90;;;;;;5004552;28;20049;-63
2024/01/18 06:17:20;;;;;;;14.05;3.67;;;-3.10;99.90;;;;;;5000169;28;20041;-64
2024/01/18 06:19:47;;;;;;;8.35;2.65;;;-3.20;99.90;;;;;;4999901;28;20052;-63
2024/01/18 06:22:14;;;;;;;11.23;3.25;;;-3.30;99.90;;;;;;4999924;28;20134;-63
2024/01/18 06:24:41;;;;;;;6.95;2.97;;;-3.30;99.90;;;;;;5003841;28;20128;-63
2024/01/18 06:27:08;;;;;;;8.82;3.45;;;-3.30;99.90;;;;;;5003554;28;20432;-62
2024/01/18 06:29:36;;;;;;;5.43;2.60;;;-3.30;99.90;;;;;;5004289;28;20045;-62
2024/01/18 06:32:03;;;;;;;9.25;3.33;;;-3.30;99.90;;;;;;5003180;28;21410;-62
2024/01/18 06:34:33;;;;;;;17.75;5.80;;;-3.40;99.90;;;;;;5002950;28;20181;-62
2024/01/18 06:37:00;;;;;;;8.93;3.35;;;-3.10;99.90;;;;;;5004034;28;20085;-63
2024/01/18 06:39:27;;;;;;;9.15;3.42;;;-3.30;99.90;;;;;;4998419;28;20537;-62
2024/01/18 06:41:54;;;;;;;6.38;3.03;;;-3.30;99.90;;;;;;5004625;28;20052;-62
2024/01/18 06:44:21;;;;;;;10.18;3.08;;;-3.30;99.90;;;;;;5002076;28;20049;-62
2024/01/18 06:46:48;;;;;;;7.65;3.47;;;-3.30;99.90;;;;;;5003913;28;20050;-63
2024/01/18 06:49:16;;;;;;;9.25;3.10;;;-3.30;99.90;;;;;;5005639;28;20045;-63
2024/01/18 06:51:43;;;;;;;5.25;2.55;;;-3.40;99.90;;;;;;5003807;28;20126;-63
2024/01/18 06:54:10;;;;;;;11.30;3.42;;;-3.40;99.90;;;;;;5004726;28;20046;-64
2024/01/18 06:56:37;;;;;;;14.38;3.60;;;-3.30;99.90;;;;;;5005579;28;20493;-63
2024/01/18 06:59:05;;;;;;;13.52;3.67;;;-3.30;99.90;;;;;;4996718;28;20302;-64
2024/01/18 07:01:33;;;;;;;7.45;3.15;;;-3.30;99.90;;;;;;5000305;28;20104;-63
2024/01/18 07:04:02;;;;;;;7.25;3.65;;;-3.30;99.90;;;;;;5004245;28;20134;-63
2024/01/18 07:06:29;;;;;;;9.90;3.30;;;-3.30;99.90;;;;;;5004320;28;20084;-63
2024/01/18 07:08:56;;;;;;;7.22;2.78;;;-3.30;99.90;;;;;;5002629;28;20109;-63
2024/01/18 07:11:23;;;;;;;5.07;2.58;;;-3.30;99.90;;;;;;5000635;28;20132;-63
2024/01/18 07:13:50;;;;;;;11.52;3.33;;;-3.30;99.90;;;;;;5000922;28;20049;-63
2024/01/18 07:16:17;;;;;;;13.20;3.63;;;-3.30;99.90;;;;;;5033505;28;20046;-62
2024/01/18 07:18:43;;;;;;;4.72;2.55;;;-3.30;99.90;;;;;;4999901;28;20042;-61
2024/01/18 07:21:10;;;;;;;14.13;3.60;;;-3.30;99.90;;;;;;5008895;28;20050;-62
2024/01/18 07:23:37;;;;;;;16.80;4.35;;;-3.30;99.90;;;;;;5005549;28;20053;-62
2024/01/18 07:26:04;;;;;;;9.15;3.38;;;-3.30;99.90;;;;;;4999053;28;20065;-61
2024/01/18 07:28:31;;;;;;;8.68;3.28;;;-3.30;99.90;;;;;;5001399;28;20125;-61
2024/01/18 07:30:58;;;;;;;13.63;3.97;;;-3.30;99.90;;;;;;5000251;28;20053;-61
2024/01/18 07:33:24;;;;;;;11.63;3.30;;;-3.30;99.90;;;;;;5000234;28;20406;-61
2024/01/18 07:35:51;;;;;;;9.15;3.13;;;-3.30;99.90;;;;;;4997384;28;20047;-62
2024/01/18 07:38:18;;;;;;;12.07;3.47;;;-3.20;99.90;;;;;;5004470;28;20042;-62
2024/01/18 07:40:45;;;;;;;8.48;4.00;;;-3.20;99.90;;;;;;4999537;28;20501;-62
2024/01/18 07:43:12;;;;;;;7.85;3.30;;;-3.20;99.90;;;;;;5003122;28;20088;-62
2024/01/18 07:45:39;;;;;;;7.70;3.78;;;-3.20;99.90;;;;;;5002061;28;20045;-62
2024/01/18 07:48:06;;;;;;;9.48;3.08;;;-3.20;99.90;;;;;;5005699;28;20046;-61
2024/01/18 07:50:33;;;;;;;6.00;3.42;;;-3.30;99.90;;;;;;5004627;28;20045;-61
2024/01/18 07:53:04;;;;;;;10.13;3.72;;;-3.20;99.90;;;;;;5003044;28;20050;-62
2024/01/18 07:55:30;;;;;;;14.63;4.03;;;-3.30;99.90;;;;;;4998562;28;20058;-61
2024/01/18 07:57:57;;;;;;;10.30;3.70;;;-3.30;99.90;;;;;;5004147;28;20116;-62
2024/01/18 08:00:25;;;;;;;11.35;4.88;;;-3.30;99.90;;;;;;5005728;28;20053;-62
2024/01/18 08:02:52;;;;;;;17.75;3.67;;;-3.30;99.90;;;;;;4995189;28;20041;-62
2024/01/18 08:05:19;;;;;;;10.18;3.33;;;-3.80;99.90;;;;;;4990840;28;20141;-62
2024/01/18 08:07:49;;;;;;;16.00;4.28;;;-3.20;99.90;;;;;;4990881;28;20053;-62
2024/01/18 08:10:16;;;;;;;6.63;3.17;;;-3.30;99.90;;;;;;4998960;28;20046;-62
2024/01/18 08:12:43;;;;;;;9.95;3.03;;;-3.30;99.90;;;;;;4987607;28;20153;-62
2024/01/18 08:15:11;;;;;;;9.32;3.80;;;-3.30;99.90;;;;;;5007649;28;20081;-63
2024/01/18 08:17:38;;;;;;;11.13;3.92;;;-3.30;99.90;;;;;;5003318;28;20056;-62
2024/01/18 08:20:12;;;;;;;9.25;3.60;;;-3.30;99.90;;;;;;5007097;28;20042;-62
2024/01/18 08:22:40;;;;;;;19.48;5.72;;;-3.30;99.90;;;;;;5002044;28;20046;-62
2024/01/18 08:25:08;;;;;;;10.75;4.05;;;-3.20;99.90;;;;;;4998476;28;20089;-63
2024/01/18 08:27:34;;;;;;;7.00;3.53;;;-3.20;99.90;;;;;;5015602;28;20071;-62
2024/01/18 08:30:03;;;;;;;13.02;3.63;;;-3.20;99.90;;;;;;5004245;28;20148;-61
2024/01/18 08:32:34;;;;;;;15.57;3.78;;;-3.20;99.90;;;;;;4999432;28;20481;-61
2024/01/18 08:35:02;;;;;;;13.05;4.28;;;-3.20;99.90;;;;;;4999098;28;20063;-61
2024/01/18 08:37:29;;;;;;;8.57;4.22;;;-3.20;99.90;;;;;;5001000;28;20049;-60
2024/01/18 08:39:56;;;;;;;7.07;3.40;;;-3.20;99.90;;;;;;5003121;28;20057;-62
2024/01/18 08:42:23;;;;;;;10.43;4.90;;;-3.20;99.90;;;;;;4999512;28;20105;-61
2024/01/18 08:44:50;;;;;;;7.45;3.60;;;-3.20;99.90;;;;;;5006920;28;20144;-61
2024/01/18 08:47:17;;;;;;;14.60;3.92;;;-3.10;99.90;;;;;;4992129;28;20103;-61
2024/01/18 08:49:46;;;;;;;8.65;3.42;;;-2.50;99.90;;;;;;5000440;28;20045;-61
2024/01/18 08:52:14;;;;;;;10.30;4.88;;;-3.10;99.90;;;;;;5011102;28;20053;-61
2024/01/18 08:54:44;;;;;;;11.88;4.22;;;-3.10;99.90;;;;;;4995126;28;20476;-61
2024/01/18 08:57:11;;;;;;;9.38;4.43;;;-3.00;99.90;;;;;;5009090;28;20078;-61
2024/01/18 08:59:37;;;;;;;13.90;4.00;;;-2.70;99.90;;;;;;4998497;28;20042;-62
2024/01/18 09:02:04;;;;;;;18.13;5.53;;;-2.90;99.90;;;;;;4993424;28;20046;-61
2024/01/18 09:04:46;;;;;;;9.68;3.92;;;-2.90;99.90;;;;;;5001929;28;20046;-61
2024/01/18 09:07:14;;;;;;;11.95;4.45;;;-2.90;99.90;;;;;;4990437;28;20050;-61
2024/01/18 09:09:41;;;;;;;10.68;3.60;;;-2.80;99.90;;;;;;5000755;28;20042;-61
2024/01/18 09:12:08;;;;;;;10.50;3.53;;;-2.70;99.90;;;;;;5007379;28;20906;-61
2024/01/18 09:14:35;;;;;;;17.75;4.90;;;-2.70;99.90;;;;;;5003747;28;20104;-61
2024/01/18 09:17:02;;;;;;;13.98;3.28;;;-2.70;99.90;;;;;;5011340;28;20385;-61
2024/01/18 09:19:32;;;;;;;9.82;3.45;;;-2.70;99.90;;;;;;5000844;28;20498;-61
2024/01/18 09:21:59;;;;;;;7.28;3.95;;;-2.80;99.90;;;;;;4998960;28;20050;-60
2024/01/18 09:24:26;;;;;;;9.23;4.03;;;-2.70;99.90;;;;;;4996848;28;20038;-61
2024/01/18 09:26:53;;;;;;;10.13;3.28;;;-2.70;99.90;;;;;;5000377;28;20053;-61
2024/01/18 09:29:20;;;;;;;9.82;5.05;;;-2.70;99.90;;;;;;4999083;28;20101;-61
2024/01/18 09:31:46;;;;;;;12.02;4.47;;;-2.60;99.90;;;;;;4999403;28;20060;-62
2024/01/18 09:34:13;;;;;;;9.52;3.33;;;-2.50;99.90;;;;;;4997920;28;20057;-61
2024/01/18 09:36:40;;;;;;;10.52;3.35;;;-2.50;99.90;;;;;;5005230;28;20416;-61
2024/01/18 09:39:09;;;;;;;16.00;3.90;;;-2.40;99.90;;;;;;4998817;28;20045;-63
2024/01/18 09:41:36;;;;;;;11.57;4.18;;;-2.40;99.90;;;;;;4990814;28;20146;-62
2024/01/18 09:44:03;;;;;;;11.77;4.90;;;-2.40;99.90;;;;;;5001355;28;20046;-62
2024/01/18 09:46:31;;;;;;;7.95;3.53;;;-2.40;99.90;;;;;;5006623;28;20050;-62
2024/01/18 09:48:58;;;;;;;10.00;3.58;;;-2.30;99.90;;;;;;5001634;28;20045;-62
2024/01/18 09:51:30;;;;;;;8.60;3.40;;;-2.00;99.90;;;;;;5002040;28;20135;-61
2024/01/18 09:54:00;;;;;;;14.98;3.35;;;-2.20;99.90;;;;;;5003975;28;20046;-62
2024/01/18 09:56:28;;;;;;;9.00;4.45;;;-2.10;99.90;;;;;;5000864;28;20057;-61
2024/01/18 09:58:55;;;;;;;12.32;3.88;;;-2.00;99.90;;;;;;5006927;28;20061;-61
2024/01/18 10:01:23;;;;;;;11.88;3.35;;;-2.00;99.90;;;;;;4994292;28;20505;-61
2024/01/18 10:03:50;;;;;;;11.25;3.53;;;-1.90;99.90;;;;;;4993483;28;20494;-62
2024/01/18 10:06:18;;;;;;;20.17;3.60;;;-1.90;99.90;;;;;;4995847;28;20441;-62
2024/01/18 10:08:46;;;;;;;10.15;3.38;;;-1.80;99.90;;;;;;5003671;28;20045;-62
2024/01/18 10:11:13;;;;;;;7.70;3.60;;;-1.80;99.90;;;;;;4995054;28;20077;-61
2024/01/18 10:13:56;;;;;;;8.73;3.45;;;-1.80;99.90;;;;;;5003336;28;20429;-62
2024/01/18 10:16:28;;;;;;;9.18;3.28;;;-1.60;99.90;;;;;;5002417;28;20128;-61
2024/01/18 10:18:55;;;;;;;9.05;3.08;;;-1.60;99.90;;;;;;5000786;28;20054;-62
2024/01/18 10:21:23;;;;;;;9.00;3.50;;;-1.70;99.90;;;;;;5000086;28;20062;-61
2024/01/18 10:23:51;;;;;;;9.48;4.78;;;-1.70;99.90;;;;;;4999398;28;20145;-61
2024/01/18 10:26:19;;;;;;;9.30;4.00;;;-1.60;99.90;;;;;;5001423;28;20099;-61
2024/01/18 10:28:46;;;;;;;16.42;3.90;;;-1.50;99.90;;;;;;5003048;28;20068;-61
2024/01/18 10:31:13;;;;;;;17.02;4.18;;;-1.40;99.90;;;;;;5000714;28;20045;-66
2024/01/18 10:33:40;;;;;;;11.27;3.78;;;-1.40;99.90;;;;;;5007540;28;20053;-62
2024/01/18 10:36:07;;;;;;;8.60;3.53;;;-1.30;99.90;;;;;;5005508;28;20462;-62
2024/01/18 10:38:35;;;;;;;18.17;3.60;;;-1.30;99.90;;;;;;5020431;28;20045;-62
2024/01/18 10:41:05;;;;;;;20.10;4.03;;;-1.30;99.90;;;;;;4999561;28;20042;-63
2024/01/18 10:43:33;;;;;;;12.82;3.63;;;-1.20;99.90;;;;;;5015000;28;21068;-62
2024/01/18 10:46:00;;;;;;;11.32;4.25;;;-1.20;99.90;;;;;;5003381;28;20054;-61
2024/01/18 10:48:27;;;;;;;17.80;3.53;;;-0.90;99.90;;;;;;5002883;28;20563;-62
2024/01/18 10:50:55;;;;;;;19.25;4.10;;;-1.10;99.90;;;;;;5003558;28;20041;-62
2024/01/18 10:53:26;;;;;;;8.82;3.33;;;-1.10;99.90;;;;;;5001869;28;20084;-61
2024/01/18 10:55:53;;;;;;;8.60;2.95;;;-1.10;99.90;;;;;;5006070;28;20517;-61
2024/01/18 10:58:19;;;;;;;11.77;4.22;;;-1.00;99.90;;;;;;4999103;28;20485;-61
2024/01/18 11:00:47;;;;;;;7.45;4.35;;;-0.90;99.90;;;;;;5004459;28;20049;-63
2024/01/18 11:03:17;;;;;;;13.88;3.92;;;-0.80;99.90;;;;;;4999734;28;20506;-61
2024/01/18 11:05:45;;;;;;;23.38;4.57;;;-0.80;99.90;;;;;;5002798;28;20077;-61
2024/01/18 11:08:15;;;;;;;7.88;3.63;;;-0.70;99.90;;;;;;4999249;28;20489;-61
2024/01/18 11:10:42;;;;;;;16.70;3.92;;;-0.50;99.90;;;;;;5002134;28;20053;-61
2024/01/18 11:13:09;;;;;;;21.15;4.50;;;-0.50;99.90;;;;;;4999024;28;20049;-61
2024/01/18 11:15:37;;;;;;;14.02;3.92;;;-0.50;99.90;;;;;;5020728;28;20046;-63
2024/01/18 11:18:13;;;;;;;6.85;3.53;;;-0.40;99.90;;;;;;5000640;28;20049;-62
2024/01/18 11:21:04;;;;;;;11.95;3.92;;;-0.30;99.90;;;;;;5011022;28;20057;-61
2024/01/18 11:23:41;;;;;;;18.58;4.07;;;-0.30;99.90;;;;;;5001589;28;20096;-61
2024/01/18 11:26:08;;;;;;;19.00;3.95;;;-0.20;99.90;;;;;;5005623;28;20116;-61
2024/01/18 11:28:35;;;;;;;7.03;3.70;;;-0.10;99.90;;;;;;5001024;28;20050;-61
2024/01/18 11:31:02;;;;;;;12.70;3.80;;;0.00;99.90;;;;;;5004766;28;20077;-61
2024/01/18 11:33:31;;;;;;;16.92;3.15;;;0.00;99.90;;;;;;5001769;28;20058;-61
2024/01/18 11:35:58;;;;;;;12.02;4.80;;;0.10;99.90;;;;;;5003095;28;20053;-61
2024/01/18 11:38:29;;;;;;;10.63;3.63;;;0.10;99.90;;;;;;5002346;28;20046;-62
2024/01/18 11:41:17;;;;;;;8.80;5.00;;;0.10;99.90;;;;;;5007084;28;20072;-61
2024/01/18 11:43:58;;;;;;;18.25;4.22;;;0.10;99.90;;;;;;5004368;28;20049;-61
2024/01/18 11:46:33;;;;;;;10.73;4.20;;;0.20;99.90;;;;;;5009497;28;20482;-61
2024/01/18 11:49:00;;;;;;;13.65;4.50;;;0.30;99.90;;;;;;5008274;28;20465;-62
2024/01/18 11:51:28;;;;;;;6.57;4.00;;;0.40;99.90;;;;;;5007905;28;20492;-64
2024/01/18 11:53:56;;;;;;;6.47;3.42;;;0.60;99.90;;;;;;5020223;28;20064;-64
2024/01/18 11:56:23;;;;;;;14.18;4.65;;;0.40;99.90;;;;;;5018670;28;20050;-62
2024/01/18 11:58:53;;;;;;;14.05;5.70;;;0.50;99.90;;;;;;5003340;28;20042;-62
2024/01/18 12:01:19;;;;;;;19.85;5.07;;;0.60;99.90;;;;;;5018965;28;20050;-62
2024/01/18 12:03:49;;;;;;;10.18;4.32;;;0.60;99.90;;;;;;4998044;28;20050;-63
2024/01/18 12:06:17;;;;;;;10.15;3.67;;;0.60;99.90;;;;;;5007500;28;20046;-63
2024/01/18 12:08:44;;;;;;;18.63;5.68;;;0.60;99.90;;;;;;4995581;28;20076;-63
2024/01/18 12:11:11;;;;;;;22.52;5.80;;;0.70;99.90;;;;;;5002498;28;20128;-62
2024/01/18 12:13:38;;;;;;;13.75;6.65;;;0.90;99.90;;;;;;5003075;28;20046;-62
2024/01/18 12:16:05;;;;;;;13.57;4.38;;;0.90;99.90;;;;;;5003060;28;20052;-62
2024/01/18 12:18:39;;;;;;;15.90;5.40;;;0.90;99.90;;;;;;5005957;28;20050;-62
2024/01/18 12:21:06;;;;;;;17.35;4.68;;;1.00;99.90;;;;;;5007208;28;20062;-62
2024/01/18 12:23:33;;;;;;;8.15;3.97;;;1.00;99.90;;;;;;5016535;28;20059;-63
2024/01/18 12:26:00;;;;;;;9.52;5.15;;;1.10;99.90;;;;;;5005583;28;20103;-61
2024/01/18 12:28:27;;;;;;;8.90;4.20;;;1.10;99.90;;;;;;5004792;28;20365;-61
2024/01/18 12:31:00;;;;;;;13.07;4.75;;;1.10;99.90;;;;;;5002198;28;20038;-61
2024/01/18 12:33:30;;;;;;;14.07;3.95;;;1.30;99.90;;;;;;5016758;28;20054;-62
2024/01/18 12:35:58;;;;;;;8.25;3.70;;;1.30;99.90;;;;;;5002569;28;20065;-61
2024/01/18 12:38:26;;;;;;;16.95;4.38;;;1.30;99.90;;;;;;5004099;28;20104;-62
2024/01/18 12:40:53;;;;;;;18.00;4.63;;;1.40;99.90;;;;;;5006478;28;20097;-62
2024/01/18 12:43:20;;;;;;;8.32;4.25;;;1.30;99.90;;;;;;5008009;28;20950;-62
2024/01/18 12:45:51;;;;;;;11.27;4.78;;;1.40;99.90;;;;;;5004503;28;20096;-62
2024/01/18 12:48:19;;;;;;;13.27;4.45;;;1.50;99.90;;;;;;5005941;28;20370;-62